Terminal Aerodrome Forecast
Issued by NWS

Home | Current Version | Previous Version | Text Only | Print | Product List | Glossary On
Versions: 1 2 3 4 5 6 7 8 9 10 11 12 13 14 15 16 17 18 19 20 21 22
000
FTUS46 KSEW 020100 AAA
TAFCLM
TAF AMD
KCLM 020139Z 0202/0224 VRB03KT P6SM SCT010 OVC150
      TEMPO 0202/0204 BKN010 OVC150
     FM020400 21003KT P6SM OVC015
     FM021500 18002KT P6SM SCT018 BKN040 OVC100
     FM021800 VRB03KT P6SM -RA OVC015=

USA.gov is the U.S. government's official web portal to all federal, state and local government web resources and services.